sensor_id;sensor_type;location;lat;lon;timestamp;P1;durP1;ratioP1;P2;durP2;ratioP2
50737;SDS011;36703;48.154;17.126;2023-03-07T00:02:58;35.67;;;15.05;;
50737;SDS011;36703;48.154;17.126;2023-03-07T00:07:00;32.50;;;15.77;;
50737;SDS011;36703;48.154;17.126;2023-03-07T00:11:03;29.48;;;15.98;;
50737;SDS011;36703;48.154;17.126;2023-03-07T00:15:07;28.85;;;15.57;;
50737;SDS011;36703;48.154;17.126;2023-03-07T00:19:10;30.95;;;15.32;;
50737;SDS011;36703;48.154;17.126;2023-03-07T00:27:12;26.08;;;13.90;;
50737;SDS011;36703;48.154;17.126;2023-03-07T00:31:14;30.88;;;14.57;;
50737;SDS011;36703;48.154;17.126;2023-03-07T00:35:17;29.05;;;14.85;;
50737;SDS011;36703;48.154;17.126;2023-03-07T00:39:18;30.27;;;14.52;;
50737;SDS011;36703;48.154;17.126;2023-03-07T00:47:21;27.70;;;14.30;;
50737;SDS011;36703;48.154;17.126;2023-03-07T00:51:23;28.27;;;14.48;;
50737;SDS011;36703;48.154;17.126;2023-03-07T00:55:25;33.80;;;15.45;;
50737;SDS011;36703;48.154;17.126;2023-03-07T00:59:27;29.77;;;15.02;;
50737;SDS011;36703;48.154;17.126;2023-03-07T01:03:29;29.67;;;15.70;;
50737;SDS011;36703;48.154;17.126;2023-03-07T01:07:32;30.52;;;16.08;;
50737;SDS011;36703;48.154;17.126;2023-03-07T01:11:34;32.45;;;15.43;;
50737;SDS011;36703;48.154;17.126;2023-03-07T01:15:38;32.30;;;15.82;;
50737;SDS011;36703;48.154;17.126;2023-03-07T01:19:39;34.88;;;15.65;;
50737;SDS011;36703;48.154;17.126;2023-03-07T01:23:41;28.25;;;14.50;;
50737;SDS011;36703;48.154;17.126;2023-03-07T01:27:44;30.02;;;15.32;;
50737;SDS011;36703;48.154;17.126;2023-03-07T01:31:46;30.23;;;15.15;;
50737;SDS011;36703;48.154;17.126;2023-03-07T01:39:50;30.05;;;14.70;;
50737;SDS011;36703;48.154;17.126;2023-03-07T01:43:53;33.35;;;16.52;;
50737;SDS011;36703;48.154;17.126;2023-03-07T01:47:55;30.25;;;15.70;;
50737;SDS011;36703;48.154;17.126;2023-03-07T01:52:04;33.17;;;16.02;;
50737;SDS011;36703;48.154;17.126;2023-03-07T01:56:13;31.20;;;15.35;;
50737;SDS011;36703;48.154;17.126;2023-03-07T02:00:16;32.72;;;15.80;;
50737;SDS011;36703;48.154;17.126;2023-03-07T02:04:38;29.73;;;15.23;;
50737;SDS011;36703;48.154;17.126;2023-03-07T02:08:49;26.95;;;14.23;;
50737;SDS011;36703;48.154;17.126;2023-03-07T02:12:53;31.73;;;14.38;;
50737;SDS011;36703;48.154;17.126;2023-03-07T02:16:55;30.08;;;15.40;;
50737;SDS011;36703;48.154;17.126;2023-03-07T02:29:42;32.20;;;15.45;;
50737;SDS011;36703;48.154;17.126;2023-03-07T02:33:45;30.98;;;15.70;;
50737;SDS011;36703;48.154;17.126;2023-03-07T02:37:48;33.30;;;16.85;;
50737;SDS011;36703;48.154;17.126;2023-03-07T02:41:55;30.92;;;16.60;;
50737;SDS011;36703;48.154;17.126;2023-03-07T02:46:11;34.65;;;16.38;;
50737;SDS011;36703;48.154;17.126;2023-03-07T02:50:13;30.08;;;15.60;;
50737;SDS011;36703;48.154;17.126;2023-03-07T02:54:18;33.15;;;16.08;;
50737;SDS011;36703;48.154;17.126;2023-03-07T02:58:21;34.50;;;15.82;;
50737;SDS011;36703;48.154;17.126;2023-03-07T03:02:22;29.58;;;15.50;;
50737;SDS011;36703;48.154;17.126;2023-03-07T03:06:24;32.88;;;15.52;;
50737;SDS011;36703;48.154;17.126;2023-03-07T03:10:26;34.95;;;14.73;;
50737;SDS011;36703;48.154;17.126;2023-03-07T03:14:28;34.72;;;15.63;;
50737;SDS011;36703;48.154;17.126;2023-03-07T03:18:30;33.58;;;15.38;;
50737;SDS011;36703;48.154;17.126;2023-03-07T03:22:33;30.73;;;15.82;;
50737;SDS011;36703;48.154;17.126;2023-03-07T03:26:36;31.00;;;15.77;;
50737;SDS011;36703;48.154;17.126;2023-03-07T03:30:38;33.45;;;15.05;;
50737;SDS011;36703;48.154;17.126;2023-03-07T03:34:41;32.33;;;16.67;;
50737;SDS011;36703;48.154;17.126;2023-03-07T03:38:42;34.92;;;17.13;;
50737;SDS011;36703;48.154;17.126;2023-03-07T03:42:45;32.20;;;15.52;;
50737;SDS011;36703;48.154;17.126;2023-03-07T03:46:49;33.75;;;16.95;;
50737;SDS011;36703;48.154;17.126;2023-03-07T03:51:00;34.38;;;16.13;;
50737;SDS011;36703;48.154;17.126;2023-03-07T04:03:08;28.00;;;14.68;;
50737;SDS011;36703;48.154;17.126;2023-03-07T04:07:09;35.75;;;16.20;;
50737;SDS011;36703;48.154;17.126;2023-03-07T04:11:11;35.03;;;16.00;;
50737;SDS011;36703;48.154;17.126;2023-03-07T04:15:13;31.00;;;16.08;;
50737;SDS011;36703;48.154;17.126;2023-03-07T04:19:15;34.47;;;16.60;;
50737;SDS011;36703;48.154;17.126;2023-03-07T04:23:18;32.78;;;16.83;;
50737;SDS011;36703;48.154;17.126;2023-03-07T04:27:21;37.08;;;16.02;;
50737;SDS011;36703;48.154;17.126;2023-03-07T04:31:24;34.35;;;16.80;;
50737;SDS011;36703;48.154;17.126;2023-03-07T04:35:27;30.45;;;16.23;;
50737;SDS011;36703;48.154;17.126;2023-03-07T04:39:29;39.28;;;16.67;;
50737;SDS011;36703;48.154;17.126;2023-03-07T04:43:31;36.90;;;17.33;;
50737;SDS011;36703;48.154;17.126;2023-03-07T04:47:34;33.17;;;15.88;;
50737;SDS011;36703;48.154;17.126;2023-03-07T04:51:35;32.88;;;16.10;;
50737;SDS011;36703;48.154;17.126;2023-03-07T04:55:37;33.22;;;16.15;;
50737;SDS011;36703;48.154;17.126;2023-03-07T04:59:39;34.78;;;16.27;;
50737;SDS011;36703;48.154;17.126;2023-03-07T05:03:42;33.03;;;15.48;;
50737;SDS011;36703;48.154;17.126;2023-03-07T05:07:45;33.50;;;16.65;;
50737;SDS011;36703;48.154;17.126;2023-03-07T05:11:47;31.52;;;16.15;;
50737;SDS011;36703;48.154;17.126;2023-03-07T05:15:52;36.13;;;15.75;;
50737;SDS011;36703;48.154;17.126;2023-03-07T05:19:57;33.45;;;16.20;;
50737;SDS011;36703;48.154;17.126;2023-03-07T05:23:59;33.45;;;15.85;;
50737;SDS011;36703;48.154;17.126;2023-03-07T05:28:01;37.67;;;16.67;;
50737;SDS011;36703;48.154;17.126;2023-03-07T05:32:03;34.60;;;15.90;;
50737;SDS011;36703;48.154;17.126;2023-03-07T05:36:05;34.83;;;16.05;;
50737;SDS011;36703;48.154;17.126;2023-03-07T05:40:07;33.13;;;15.85;;
50737;SDS011;36703;48.154;17.126;2023-03-07T05:44:12;41.58;;;16.27;;
50737;SDS011;36703;48.154;17.126;2023-03-07T05:48:14;36.15;;;17.20;;
50737;SDS011;36703;48.154;17.126;2023-03-07T05:52:16;38.53;;;17.48;;
50737;SDS011;36703;48.154;17.126;2023-03-07T05:56:18;36.40;;;17.40;;
50737;SDS011;36703;48.154;17.126;2023-03-07T06:00:20;35.20;;;17.27;;
50737;SDS011;36703;48.154;17.126;2023-03-07T06:04:28;35.60;;;15.93;;
50737;SDS011;36703;48.154;17.126;2023-03-07T06:08:30;31.95;;;15.57;;
50737;SDS011;36703;48.154;17.126;2023-03-07T06:12:31;34.63;;;15.77;;
50737;SDS011;36703;48.154;17.126;2023-03-07T06:16:33;33.08;;;15.70;;
50737;SDS011;36703;48.154;17.126;2023-03-07T06:20:37;31.60;;;15.35;;
50737;SDS011;36703;48.154;17.126;2023-03-07T06:24:38;34.47;;;15.90;;
50737;SDS011;36703;48.154;17.126;2023-03-07T06:28:40;34.28;;;16.48;;
50737;SDS011;36703;48.154;17.126;2023-03-07T06:32:42;33.85;;;15.93;;
50737;SDS011;36703;48.154;17.126;2023-03-07T06:36:44;30.33;;;14.82;;
50737;SDS011;36703;48.154;17.126;2023-03-07T06:40:54;31.80;;;15.27;;
50737;SDS011;36703;48.154;17.126;2023-03-07T06:44:56;35.78;;;16.20;;
50737;SDS011;36703;48.154;17.126;2023-03-07T06:48:58;32.13;;;16.10;;
50737;SDS011;36703;48.154;17.126;2023-03-07T06:53:00;34.97;;;15.30;;
50737;SDS011;36703;48.154;17.126;2023-03-07T06:57:02;34.15;;;15.35;;
50737;SDS011;36703;48.154;17.126;2023-03-07T07:01:03;34.17;;;16.65;;
50737;SDS011;36703;48.154;17.126;2023-03-07T07:05:08;31.13;;;16.30;;
50737;SDS011;36703;48.154;17.126;2023-03-07T07:09:11;31.42;;;16.60;;
50737;SDS011;36703;48.154;17.126;2023-03-07T07:13:14;34.42;;;16.83;;
50737;SDS011;36703;48.154;17.126;2023-03-07T07:17:15;34.97;;;16.48;;
50737;SDS011;36703;48.154;17.126;2023-03-07T07:21:17;32.72;;;15.85;;
50737;SDS011;36703;48.154;17.126;2023-03-07T07:25:20;34.72;;;15.98;;
50737;SDS011;36703;48.154;17.126;2023-03-07T07:29:22;44.28;;;16.80;;
50737;SDS011;36703;48.154;17.126;2023-03-07T07:33:25;37.33;;;16.63;;
50737;SDS011;36703;48.154;17.126;2023-03-07T07:37:28;39.97;;;18.17;;
50737;SDS011;36703;48.154;17.126;2023-03-07T07:41:30;34.30;;;16.02;;
50737;SDS011;36703;48.154;17.126;2023-03-07T07:45:32;33.70;;;16.55;;
50737;SDS011;36703;48.154;17.126;2023-03-07T07:49:34;34.95;;;15.82;;
50737;SDS011;36703;48.154;17.126;2023-03-07T07:53:35;36.95;;;17.20;;
50737;SDS011;36703;48.154;17.126;2023-03-07T07:57:37;36.17;;;16.02;;
50737;SDS011;36703;48.154;17.126;2023-03-07T08:01:39;35.83;;;16.15;;
50737;SDS011;36703;48.154;17.126;2023-03-07T08:05:44;36.90;;;16.95;;
50737;SDS011;36703;48.154;17.126;2023-03-07T08:09:48;33.28;;;16.20;;
50737;SDS011;36703;48.154;17.126;2023-03-07T08:13:49;35.65;;;16.83;;
50737;SDS011;36703;48.154;17.126;2023-03-07T08:25:54;34.10;;;16.25;;
50737;SDS011;36703;48.154;17.126;2023-03-07T08:29:55;35.75;;;16.75;;
50737;SDS011;36703;48.154;17.126;2023-03-07T08:33:58;35.97;;;17.25;;
50737;SDS011;36703;48.154;17.126;2023-03-07T08:42:01;38.15;;;17.83;;
50737;SDS011;36703;48.154;17.126;2023-03-07T08:46:02;37.70;;;18.30;;
50737;SDS011;36703;48.154;17.126;2023-03-07T08:50:05;34.42;;;17.42;;
50737;SDS011;36703;48.154;17.126;2023-03-07T08:54:07;42.50;;;18.88;;
50737;SDS011;36703;48.154;17.126;2023-03-07T09:06:16;43.45;;;19.35;;
50737;SDS011;36703;48.154;17.126;2023-03-07T09:10:19;38.30;;;19.65;;
50737;SDS011;36703;48.154;17.126;2023-03-07T09:14:22;47.22;;;18.98;;
50737;SDS011;36703;48.154;17.126;2023-03-07T09:18:23;33.47;;;18.58;;
50737;SDS011;36703;48.154;17.126;2023-03-07T09:22:28;37.60;;;17.30;;
50737;SDS011;36703;48.154;17.126;2023-03-07T09:26:29;37.55;;;17.00;;
50737;SDS011;36703;48.154;17.126;2023-03-07T09:34:32;34.13;;;16.63;;
50737;SDS011;36703;48.154;17.126;2023-03-07T09:38:34;33.88;;;15.98;;
50737;SDS011;36703;48.154;17.126;2023-03-07T09:42:46;31.83;;;15.95;;
50737;SDS011;36703;48.154;17.126;2023-03-07T09:52:02;34.50;;;16.08;;
50737;SDS011;36703;48.154;17.126;2023-03-07T09:56:16;32.00;;;16.10;;
50737;SDS011;36703;48.154;17.126;2023-03-07T10:00:32;26.90;;;13.70;;
50737;SDS011;36703;48.154;17.126;2023-03-07T10:04:58;28.73;;;13.30;;
50737;SDS011;36703;48.154;17.126;2023-03-07T10:09:37;31.38;;;15.50;;
50737;SDS011;36703;48.154;17.126;2023-03-07T10:27:10;20.97;;;9.20;;
50737;SDS011;36703;48.154;17.126;2023-03-07T10:31:17;29.80;;;14.50;;
50737;SDS011;36703;48.154;17.126;2023-03-07T10:35:42;28.02;;;15.05;;
50737;SDS011;36703;48.154;17.126;2023-03-07T10:39:51;26.80;;;12.88;;
50737;SDS011;36703;48.154;17.126;2023-03-07T10:43:55;20.48;;;10.05;;
50737;SDS011;36703;48.154;17.126;2023-03-07T10:47:58;26.52;;;13.00;;
50737;SDS011;36703;48.154;17.126;2023-03-07T10:56:28;20.17;;;9.85;;
50737;SDS011;36703;48.154;17.126;2023-03-07T11:00:30;22.70;;;11.57;;
50737;SDS011;36703;48.154;17.126;2023-03-07T11:04:41;22.13;;;11.30;;
50737;SDS011;36703;48.154;17.126;2023-03-07T11:08:45;16.63;;;8.98;;
50737;SDS011;36703;48.154;17.126;2023-03-07T11:12:47;21.60;;;11.85;;
50737;SDS011;36703;48.154;17.126;2023-03-07T11:20:57;17.10;;;11.48;;
50737;SDS011;36703;48.154;17.126;2023-03-07T11:29:16;22.00;;;12.35;;
50737;SDS011;36703;48.154;17.126;2023-03-07T11:33:22;21.30;;;11.68;;
50737;SDS011;36703;48.154;17.126;2023-03-07T11:42:05;24.02;;;11.75;;
50737;SDS011;36703;48.154;17.126;2023-03-07T11:50:55;22.27;;;11.27;;
50737;SDS011;36703;48.154;17.126;2023-03-07T12:03:32;20.08;;;11.25;;
50737;SDS011;36703;48.154;17.126;2023-03-07T12:16:17;19.73;;;11.40;;
50737;SDS011;36703;48.154;17.126;2023-03-07T12:20:38;19.98;;;10.60;;
50737;SDS011;36703;48.154;17.126;2023-03-07T12:29:26;22.05;;;11.20;;
50737;SDS011;36703;48.154;17.126;2023-03-07T12:38:17;21.77;;;11.43;;
50737;SDS011;36703;48.154;17.126;2023-03-07T12:51:37;23.65;;;12.57;;
50737;SDS011;36703;48.154;17.126;2023-03-07T12:55:46;23.70;;;11.95;;
50737;SDS011;36703;48.154;17.126;2023-03-07T13:00:02;23.48;;;12.20;;
50737;SDS011;36703;48.154;17.126;2023-03-07T13:04:16;18.65;;;10.95;;
50737;SDS011;36703;48.154;17.126;2023-03-07T13:08:32;18.23;;;11.18;;
50737;SDS011;36703;48.154;17.126;2023-03-07T13:12:35;17.83;;;9.02;;
50737;SDS011;36703;48.154;17.126;2023-03-07T13:16:42;19.98;;;9.90;;
50737;SDS011;36703;48.154;17.126;2023-03-07T13:20:45;23.88;;;11.88;;
50737;SDS011;36703;48.154;17.126;2023-03-07T13:34:39;20.83;;;11.43;;
50737;SDS011;36703;48.154;17.126;2023-03-07T13:38:46;21.65;;;10.95;;
50737;SDS011;36703;48.154;17.126;2023-03-07T13:42:47;21.92;;;11.50;;
50737;SDS011;36703;48.154;17.126;2023-03-07T13:46:49;16.80;;;8.15;;
50737;SDS011;36703;48.154;17.126;2023-03-07T13:58:59;18.95;;;9.77;;
50737;SDS011;36703;48.154;17.126;2023-03-07T14:03:01;18.70;;;10.23;;
50737;SDS011;36703;48.154;17.126;2023-03-07T14:24:54;17.70;;;9.40;;
50737;SDS011;36703;48.154;17.126;2023-03-07T14:29:25;16.65;;;9.45;;
50737;SDS011;36703;48.154;17.126;2023-03-07T14:33:31;17.50;;;9.63;;
50737;SDS011;36703;48.154;17.126;2023-03-07T14:37:37;20.50;;;10.38;;
50737;SDS011;36703;48.154;17.126;2023-03-07T14:50:19;21.60;;;10.60;;
50737;SDS011;36703;48.154;17.126;2023-03-07T14:54:26;19.17;;;8.57;;
50737;SDS011;36703;48.154;17.126;2023-03-07T14:58:33;21.67;;;11.90;;
50737;SDS011;36703;48.154;17.126;2023-03-07T15:07:00;20.67;;;11.50;;
50737;SDS011;36703;48.154;17.126;2023-03-07T15:11:06;21.55;;;11.73;;
50737;SDS011;36703;48.154;17.126;2023-03-07T15:15:22;22.92;;;11.73;;
50737;SDS011;36703;48.154;17.126;2023-03-07T15:23:39;21.27;;;10.65;;
50737;SDS011;36703;48.154;17.126;2023-03-07T15:27:40;17.00;;;9.45;;
50737;SDS011;36703;48.154;17.126;2023-03-07T15:40:21;18.30;;;9.60;;
50737;SDS011;36703;48.154;17.126;2023-03-07T15:44:28;26.27;;;11.35;;
50737;SDS011;36703;48.154;17.126;2023-03-07T15:52:37;23.80;;;11.32;;
50737;SDS011;36703;48.154;17.126;2023-03-07T15:56:40;25.77;;;11.00;;
50737;SDS011;36703;48.154;17.126;2023-03-07T16:00:42;24.70;;;12.48;;
50737;SDS011;36703;48.154;17.126;2023-03-07T16:08:46;19.60;;;10.48;;
50737;SDS011;36703;48.154;17.126;2023-03-07T16:12:48;25.55;;;12.45;;
50737;SDS011;36703;48.154;17.126;2023-03-07T16:16:50;24.65;;;12.00;;
50737;SDS011;36703;48.154;17.126;2023-03-07T16:20:58;25.00;;;12.07;;
50737;SDS011;36703;48.154;17.126;2023-03-07T16:25:00;22.15;;;11.73;;
50737;SDS011;36703;48.154;17.126;2023-03-07T16:29:02;24.10;;;11.25;;
50737;SDS011;36703;48.154;17.126;2023-03-07T16:33:04;27.20;;;11.80;;
50737;SDS011;36703;48.154;17.126;2023-03-07T16:41:25;20.63;;;11.02;;
50737;SDS011;36703;48.154;17.126;2023-03-07T16:45:28;21.40;;;12.35;;
50737;SDS011;36703;48.154;17.126;2023-03-07T16:49:31;25.02;;;12.50;;
50737;SDS011;36703;48.154;17.126;2023-03-07T16:53:33;21.42;;;11.93;;
50737;SDS011;36703;48.154;17.126;2023-03-07T16:57:34;25.30;;;12.45;;
50737;SDS011;36703;48.154;17.126;2023-03-07T17:01:36;22.60;;;12.32;;
50737;SDS011;36703;48.154;17.126;2023-03-07T17:05:37;23.23;;;11.35;;
50737;SDS011;36703;48.154;17.126;2023-03-07T17:13:40;24.65;;;11.75;;
50737;SDS011;36703;48.154;17.126;2023-03-07T17:17:42;25.98;;;12.40;;
50737;SDS011;36703;48.154;17.126;2023-03-07T17:21:45;24.40;;;12.52;;
50737;SDS011;36703;48.154;17.126;2023-03-07T17:29:48;22.40;;;12.05;;
50737;SDS011;36703;48.154;17.126;2023-03-07T17:33:54;23.60;;;11.88;;
50737;SDS011;36703;48.154;17.126;2023-03-07T17:37:55;18.67;;;9.68;;
50737;SDS011;36703;48.154;17.126;2023-03-07T17:41:57;24.52;;;12.63;;
50737;SDS011;36703;48.154;17.126;2023-03-07T17:45:59;26.65;;;13.05;;
50737;SDS011;36703;48.154;17.126;2023-03-07T17:50:01;24.67;;;12.55;;
50737;SDS011;36703;48.154;17.126;2023-03-07T17:54:07;26.38;;;13.00;;
50737;SDS011;36703;48.154;17.126;2023-03-07T17:58:09;28.35;;;13.73;;
50737;SDS011;36703;48.154;17.126;2023-03-07T18:02:12;29.58;;;12.90;;
50737;SDS011;36703;48.154;17.126;2023-03-07T18:06:14;27.00;;;13.63;;
